createdAt,value
2019-05-10T00:03:25.134Z,99.10
2019-05-10T00:09:22.636Z,99.40
2019-05-10T00:12:05.193Z,99.70
2019-05-10T00:14:53.690Z,99.60
2019-05-10T00:17:29.768Z,99.60
2019-05-10T00:19:59.436Z,99.90
2019-05-10T00:22:29.802Z,99.90
2019-05-10T00:25:08.538Z,99.90
2019-05-10T00:27:41.866Z,99.90
2019-05-10T00:30:13.657Z,99.90
2019-05-10T00:32:48.724Z,99.90
2019-05-10T00:58:10.887Z,99.90
2019-05-10T01:00:46.447Z,99.90
2019-05-10T01:03:21.105Z,99.80
2019-05-10T01:05:52.774Z,99.20
2019-05-10T01:08:24.037Z,99.40
2019-05-10T01:11:06.762Z,99.30
2019-05-10T01:13:38.523Z,99.10
2019-05-10T01:16:14.253Z,99.80
2019-05-10T01:18:42.994Z,99.40
2019-05-10T01:21:42.448Z,99.90
2019-05-10T01:24:13.862Z,99.90
2019-05-10T01:26:58.560Z,99.90
2019-05-10T01:29:33.773Z,99.90
2019-05-10T01:32:09.008Z,99.90
2019-05-10T01:35:09.016Z,99.90
2019-05-10T01:37:38.897Z,99.90
2019-05-10T01:40:43.835Z,99.90
2019-05-10T01:43:22.938Z,99.90
2019-05-10T01:45:57.258Z,99.80
2019-05-10T01:48:34.604Z,99.60
2019-05-10T01:51:09.263Z,99.90
2019-05-10T01:53:39.899Z,99.90
2019-05-10T01:56:14.280Z,99.90
2019-05-10T01:58:44.013Z,99.70
2019-05-10T02:01:15.790Z,99.40
2019-05-10T02:03:45.294Z,99.40
2019-05-10T02:06:20.097Z,99.30
2019-05-10T02:08:51.977Z,99.30
2019-05-10T02:11:25.046Z,99.50
2019-05-10T02:14:03.723Z,99.90
2019-05-10T02:16:32.716Z,99.70
2019-05-10T02:19:05.256Z,99.90
2019-05-10T02:21:40.198Z,99.90
2019-05-10T02:24:12.261Z,99.90
2019-05-10T02:26:47.898Z,99.90
2019-05-10T02:29:19.235Z,99.90
2019-05-10T02:31:54.893Z,99.90
2019-05-10T02:34:27.329Z,99.90
2019-05-10T02:37:08.015Z,99.90
2019-05-10T02:39:38.996Z,99.90
2019-05-10T02:42:08.244Z,99.90
2019-05-10T02:44:45.071Z,99.90
2019-05-10T02:47:17.732Z,99.90
2019-05-10T02:49:48.647Z,99.90
2019-05-10T02:52:20.389Z,99.90
2019-05-10T02:54:52.076Z,99.90
2019-05-10T02:57:37.827Z,99.90
2019-05-10T03:00:10.414Z,99.90
2019-05-10T03:02:49.433Z,99.90
2019-05-10T03:05:20.110Z,99.90
2019-05-10T03:07:52.944Z,99.90
2019-05-10T03:10:22.865Z,99.90
2019-05-10T03:12:57.719Z,99.90
2019-05-10T03:15:38.658Z,99.90
2019-05-10T03:18:10.424Z,99.90
2019-05-10T03:20:48.593Z,99.90
2019-05-10T03:23:20.466Z,99.90
2019-05-10T03:25:49.237Z,99.90
2019-05-10T03:28:26.936Z,99.90
2019-05-10T03:30:58.439Z,99.90
2019-05-10T03:33:27.103Z,99.90
2019-05-10T03:35:56.905Z,99.90
2019-05-10T03:38:28.848Z,99.90
2019-05-10T03:40:59.775Z,99.90
2019-05-10T03:43:29.409Z,99.90
2019-05-10T03:46:22.166Z,99.90
2019-05-10T03:48:51.462Z,99.90
2019-05-10T03:51:23.197Z,99.90
2019-05-10T03:53:53.060Z,99.90
2019-05-10T03:56:23.845Z,99.90
2019-05-10T03:59:05.222Z,99.90
2019-05-10T04:01:49.438Z,99.90
2019-05-10T04:04:23.885Z,99.90
2019-05-10T04:06:55.042Z,99.90
2019-05-10T04:09:32.296Z,99.90
2019-05-10T04:12:07.054Z,99.90
2019-05-10T04:14:42.198Z,99.90
2019-05-10T04:17:27.959Z,99.90
2019-05-10T04:19:58.741Z,99.90
2019-05-10T04:22:28.757Z,99.90
2019-05-10T04:24:57.353Z,99.90
2019-05-10T04:27:33.578Z,99.90
2019-05-10T04:30:09.821Z,99.90
2019-05-10T04:32:39.008Z,99.90
2019-05-10T04:35:13.971Z,99.90
2019-05-10T04:37:46.224Z,99.90
2019-05-10T04:40:20.965Z,99.90
2019-05-10T04:42:59.661Z,99.90
2019-05-10T04:45:28.669Z,99.90
2019-05-10T04:48:05.420Z,99.90
2019-05-10T04:50:35.063Z,99.90
2019-05-10T04:53:10.001Z,99.90
2019-05-10T04:55:40.704Z,99.90
2019-05-10T04:58:15.201Z,99.90
2019-05-10T05:00:44.253Z,99.90
2019-05-10T05:03:17.746Z,99.90
2019-05-10T05:05:49.480Z,99.90
2019-05-10T05:08:21.036Z,99.90
2019-05-10T05:10:52.541Z,99.90
2019-05-10T05:13:41.388Z,99.90
2019-05-10T05:16:16.106Z,99.90
2019-05-10T05:18:50.370Z,99.90
2019-05-10T05:21:26.439Z,99.90
2019-05-10T05:24:04.977Z,99.90
2019-05-10T05:26:36.836Z,99.90
2019-05-10T05:29:05.418Z,99.90
2019-05-10T05:31:38.689Z,99.90
2019-05-10T05:34:13.160Z,99.90
2019-05-10T05:36:46.752Z,99.90
2019-05-10T05:39:24.953Z,99.90
2019-05-10T05:41:56.775Z,99.90
2019-05-10T05:48:40.122Z,99.90
2019-05-10T05:51:03.178Z,99.90
2019-05-10T05:53:59.347Z,99.90
2019-05-10T05:56:33.409Z,99.90
2019-05-10T05:59:08.930Z,99.90
2019-05-10T06:01:42.863Z,99.90
2019-05-10T06:04:12.801Z,99.90
2019-05-10T06:06:44.727Z,99.90
2019-05-10T06:09:22.470Z,99.60
2019-05-10T06:11:54.084Z,98.90
2019-05-10T06:14:22.959Z,98.40
2019-05-10T06:16:54.251Z,98.20
2019-05-10T06:19:29.779Z,98.20
2019-05-10T06:22:38.167Z,97.80
2019-05-10T06:25:28.823Z,98.00
2019-05-10T06:28:25.371Z,98.60
2019-05-10T06:30:45.089Z,98.30
2019-05-10T06:33:15.964Z,98.10
2019-05-10T06:35:51.043Z,97.90
2019-05-10T06:38:42.750Z,98.10
2019-05-10T06:41:50.126Z,98.20
2019-05-10T06:44:44.064Z,98.00
2019-05-10T06:47:21.704Z,98.20
2019-05-10T06:49:52.018Z,99.10
2019-05-10T06:52:27.829Z,99.10
2019-05-10T06:58:00.665Z,98.60
2019-05-10T07:00:44.681Z,97.70
2019-05-10T07:03:11.927Z,97.50
2019-05-10T07:05:43.542Z,97.70
2019-05-10T07:08:19.973Z,97.70
2019-05-10T07:11:08.506Z,97.90
2019-05-10T07:14:00.309Z,97.50
2019-05-10T07:16:56.544Z,97.70
2019-05-10T07:19:40.855Z,97.40
2019-05-10T07:22:11.078Z,97.60
2019-05-10T07:24:43.935Z,98.70
2019-05-10T07:27:18.483Z,98.00
2019-05-10T07:29:47.316Z,97.50
2019-05-10T07:32:16.479Z,98.30
2019-05-10T07:34:48.783Z,99.30
2019-05-10T07:37:23.609Z,99.90
2019-05-10T07:40:05.587Z,99.90
2019-05-10T07:42:34.156Z,99.90
2019-05-10T07:45:07.198Z,99.90
2019-05-10T07:47:41.517Z,99.90
2019-05-10T07:50:11.665Z,99.90
2019-05-10T07:52:46.261Z,99.70
2019-05-10T07:55:28.064Z,99.90
2019-05-10T07:57:59.148Z,99.50
2019-05-10T08:00:26.478Z,99.60
2019-05-10T08:03:07.567Z,99.70
2019-05-10T08:05:33.370Z,99.10
2019-05-10T08:08:11.031Z,98.60
2019-05-10T08:10:42.288Z,98.20
2019-05-10T08:13:21.221Z,99.40
2019-05-10T08:15:55.373Z,99.00
2019-05-10T08:18:25.527Z,99.00
2019-05-10T08:21:01.521Z,99.60
2019-05-10T08:23:30.683Z,97.50
2019-05-10T08:26:04.524Z,96.60
2019-05-10T08:28:52.811Z,97.00
2019-05-10T08:31:56.082Z,99.20
2019-05-10T08:34:35.680Z,97.30
2019-05-10T08:37:19.485Z,95.90
2019-05-10T08:39:49.496Z,95.10
2019-05-10T08:42:34.318Z,95.80
2019-05-10T08:44:54.113Z,96.40
2019-05-10T08:47:27.317Z,97.10
2019-05-10T08:50:10.407Z,96.50
2019-05-10T08:52:31.636Z,94.00
2019-05-10T08:55:12.227Z,93.40
2019-05-10T08:57:49.092Z,94.50
2019-05-10T09:00:40.232Z,94.30
2019-05-10T09:02:52.438Z,93.90
2019-05-10T09:05:31.882Z,95.30
2019-05-10T09:08:11.602Z,96.70
2019-05-10T09:10:42.146Z,97.30
2019-05-10T09:13:16.106Z,97.60
2019-05-10T09:15:56.084Z,99.20
2019-05-10T09:18:23.747Z,98.70
2019-05-10T09:21:08.469Z,98.60
2019-05-10T09:23:36.382Z,98.60
2019-05-10T09:26:12.011Z,99.40
2019-05-10T09:28:47.497Z,99.60
2019-05-10T09:31:21.994Z,98.80
2019-05-10T09:34:23.763Z,99.60
2019-05-10T09:36:52.827Z,98.80
2019-05-10T09:39:32.100Z,99.20
2019-05-10T09:42:08.267Z,98.50
2019-05-10T09:44:34.176Z,98.30
2019-05-10T09:47:39.328Z,97.80
2019-05-10T09:50:41.440Z,95.40
2019-05-10T09:53:12.670Z,96.20
2019-05-10T09:55:48.968Z,96.40
2019-05-10T09:58:14.351Z,95.90
2019-05-10T10:00:51.605Z,93.60
2019-05-10T10:03:43.101Z,94.10
2019-05-10T10:06:13.364Z,93.20
2019-05-10T10:09:24.499Z,91.00
2019-05-10T10:12:32.961Z,92.10
2019-05-10T10:15:18.664Z,89.50
2019-05-10T10:17:49.471Z,90.80
2019-05-10T10:20:20.943Z,90.80
2019-05-10T10:22:57.314Z,83.00
2019-05-10T10:25:29.749Z,88.10
2019-05-10T10:28:08.334Z,86.00
2019-05-10T10:30:37.701Z,84.90
2019-05-10T10:33:17.835Z,86.30
2019-05-10T10:35:49.637Z,85.40
2019-05-10T10:38:18.488Z,90.10
2019-05-10T10:40:50.148Z,88.70
2019-05-10T10:43:27.220Z,89.10
2019-05-10T10:45:57.386Z,85.60
2019-05-10T10:48:28.309Z,84.20
2019-05-10T10:51:15.374Z,88.40
2019-05-10T10:53:54.443Z,83.90
2019-05-10T10:56:27.643Z,85.50
2019-05-10T10:59:00.782Z,80.90
2019-05-10T11:01:49.863Z,76.40
2019-05-10T11:04:16.267Z,76.80
2019-05-10T11:06:46.824Z,79.40
2019-05-10T11:09:22.434Z,79.80
2019-05-10T11:11:54.217Z,81.30
2019-05-10T11:14:31.937Z,79.80
2019-05-10T11:17:01.179Z,84.10
2019-05-10T11:19:35.694Z,91.00
2019-05-10T11:22:13.649Z,91.30
2019-05-10T11:24:53.409Z,90.60
2019-05-10T11:27:20.989Z,92.40
2019-05-10T11:30:00.862Z,90.70
2019-05-10T11:32:32.097Z,90.70
2019-05-10T11:35:05.399Z,87.30
2019-05-10T11:37:36.629Z,83.40
2019-05-10T11:40:27.771Z,83.00
2019-05-10T11:42:55.146Z,84.40
2019-05-10T11:45:26.140Z,83.70
2019-05-10T11:48:04.415Z,82.50
2019-05-10T11:50:35.973Z,82.00
2019-05-10T11:53:13.383Z,77.50
2019-05-10T11:55:44.541Z,74.20
2019-05-10T11:58:23.501Z,74.60
2019-05-10T12:00:59.460Z,76.40
2019-05-10T12:03:26.870Z,77.10
2019-05-10T12:06:12.110Z,75.20
2019-05-10T12:08:41.838Z,77.90
2019-05-10T12:11:25.446Z,79.50
2019-05-10T12:13:52.854Z,78.40
2019-05-10T12:16:22.002Z,82.10
2019-05-10T12:19:06.510Z,83.60
2019-05-10T12:22:04.556Z,88.90
2019-05-10T12:24:57.273Z,85.30
2019-05-10T12:27:22.578Z,90.00
2019-05-10T12:29:55.886Z,87.40
2019-05-10T12:32:55.685Z,90.30
2019-05-10T12:36:00.825Z,91.90
2019-05-10T12:38:38.435Z,91.70
2019-05-10T12:41:23.224Z,90.20
2019-05-10T12:44:26.407Z,84.10
2019-05-10T12:46:56.998Z,87.80
2019-05-10T12:49:28.579Z,86.90
2019-05-10T12:52:03.978Z,88.50
2019-05-10T12:54:38.547Z,87.90
2019-05-10T12:57:13.380Z,91.00
2019-05-10T12:59:44.998Z,90.50
2019-05-10T13:02:19.803Z,90.60
2019-05-10T13:04:54.445Z,91.20
2019-05-10T13:07:28.854Z,91.00
2019-05-10T13:10:03.783Z,89.70
2019-05-10T13:12:49.649Z,86.90
2019-05-10T13:15:24.690Z,88.00
2019-05-10T13:17:53.052Z,90.50
2019-05-10T13:20:24.890Z,89.00
2019-05-10T13:22:56.831Z,90.50
2019-05-10T13:26:01.502Z,90.30
2019-05-10T13:28:34.726Z,90.20
2019-05-10T13:31:17.157Z,85.90
2019-05-10T13:33:47.831Z,87.00
2019-05-10T13:36:19.568Z,84.00
2019-05-10T13:38:57.593Z,84.50
2019-05-10T13:41:26.639Z,79.30
2019-05-10T13:43:59.000Z,83.20
2019-05-10T13:46:31.853Z,83.30
2019-05-10T13:49:16.503Z,87.70
2019-05-10T13:51:48.990Z,83.90
2019-05-10T13:54:25.500Z,86.90
2019-05-10T13:57:02.565Z,83.70
2019-05-10T13:59:38.954Z,78.90
2019-05-10T14:02:40.777Z,81.70
2019-05-10T14:05:17.722Z,76.60
2019-05-10T14:07:51.942Z,75.60
2019-05-10T14:10:49.230Z,76.90
2019-05-10T14:13:18.605Z,80.00
2019-05-10T14:16:19.502Z,77.80
2019-05-10T14:19:22.973Z,79.50
2019-05-10T14:21:56.269Z,77.20
2019-05-10T14:24:28.578Z,75.90
2019-05-10T14:26:59.832Z,73.40
2019-05-10T14:29:34.349Z,75.30
2019-05-10T14:32:04.614Z,75.80
2019-05-10T14:34:38.059Z,75.20
2019-05-10T14:37:19.291Z,77.20
2019-05-10T14:39:56.463Z,78.80
2019-05-10T14:42:33.571Z,78.30
2019-05-10T14:45:06.903Z,78.10
2019-05-10T14:47:47.784Z,74.40
2019-05-10T14:50:19.190Z,77.30
2019-05-10T14:52:46.933Z,82.90
2019-05-10T14:55:27.899Z,77.20
2019-05-10T14:57:59.496Z,76.50
2019-05-10T15:00:30.269Z,76.40
2019-05-10T15:03:09.454Z,71.50
2019-05-10T15:05:48.928Z,71.40
2019-05-10T15:08:17.417Z,74.10
2019-05-10T15:10:51.480Z,76.10
2019-05-10T15:13:28.577Z,74.30
2019-05-10T15:15:59.579Z,75.80
2019-05-10T15:18:30.309Z,78.60
2019-05-10T15:20:58.895Z,79.60
2019-05-10T15:23:33.527Z,79.70
2019-05-10T15:26:10.361Z,77.30
2019-05-10T15:28:40.311Z,79.30
2019-05-10T15:31:30.907Z,80.50
2019-05-10T15:34:06.568Z,79.30
2019-05-10T15:36:40.937Z,79.00
2019-05-10T15:39:16.611Z,78.10
2019-05-10T15:41:53.566Z,79.90
2019-05-10T15:44:31.531Z,77.40
2019-05-10T15:47:19.769Z,79.50
2019-05-10T15:49:54.604Z,81.50
2019-05-10T15:52:25.856Z,79.40
2019-05-10T15:54:57.095Z,80.00
2019-05-10T15:57:32.279Z,78.50
2019-05-10T16:00:25.311Z,82.10
2019-05-10T16:02:55.888Z,81.60
2019-05-10T16:06:00.892Z,79.90
2019-05-10T16:08:31.929Z,80.70
2019-05-10T16:11:03.703Z,82.90
2019-05-10T16:13:39.334Z,83.90
2019-05-10T16:16:16.457Z,84.30
2019-05-10T16:18:45.171Z,85.00
2019-05-10T16:21:16.835Z,85.30
2019-05-10T16:24:07.199Z,87.60
2019-05-10T16:26:36.736Z,87.30
2019-05-10T16:29:05.306Z,86.40
2019-05-10T16:31:44.680Z,89.10
2019-05-10T16:34:13.266Z,90.70
2019-05-10T16:36:48.123Z,90.20
2019-05-10T16:39:23.649Z,91.60
2019-05-10T16:41:54.947Z,92.20
2019-05-10T16:44:35.529Z,92.30
2019-05-10T16:47:04.275Z,92.90
2019-05-10T16:49:53.352Z,91.20
2019-05-10T16:52:25.832Z,91.70
2019-05-10T16:54:51.794Z,92.00
2019-05-10T16:57:20.500Z,94.80
2019-05-10T16:59:55.001Z,94.60
2019-05-10T17:02:24.629Z,94.50
2019-05-10T17:04:55.973Z,93.60
2019-05-10T17:07:24.663Z,93.80
2019-05-10T17:09:56.373Z,93.80
2019-05-10T17:12:37.263Z,92.20
2019-05-10T17:15:06.792Z,92.90
2019-05-10T17:17:50.394Z,93.80
2019-05-10T17:20:34.759Z,94.10
2019-05-10T17:23:08.933Z,93.30
2019-05-10T17:25:42.877Z,93.70
2019-05-10T17:28:14.187Z,92.80
2019-05-10T17:30:45.500Z,93.50
2019-05-10T17:33:16.930Z,93.20
2019-05-10T17:36:19.784Z,92.90
2019-05-10T17:38:55.456Z,92.90
2019-05-10T17:41:31.689Z,92.90
2019-05-10T17:44:06.756Z,94.10
2019-05-10T17:46:41.059Z,94.70
2019-05-10T17:49:18.461Z,94.60
2019-05-10T17:51:46.541Z,94.00
2019-05-10T17:54:21.469Z,94.40
2019-05-10T17:56:56.066Z,94.10
2019-05-10T17:59:26.595Z,94.80
2019-05-10T18:01:58.244Z,95.60
2019-05-10T18:04:39.999Z,93.80
2019-05-10T18:07:08.597Z,94.50
2019-05-10T18:09:37.206Z,94.50
2019-05-10T18:12:15.691Z,94.20
2019-05-10T18:14:50.155Z,94.30
2019-05-10T18:17:35.262Z,94.50
2019-05-10T18:20:04.921Z,94.80
2019-05-10T18:22:52.898Z,94.90
2019-05-10T18:25:35.463Z,95.00
2019-05-10T18:28:17.152Z,95.80
2019-05-10T18:30:57.395Z,96.00
2019-05-10T18:33:25.975Z,95.60
2019-05-10T18:36:49.238Z,95.50
2019-05-10T18:39:08.929Z,96.10
2019-05-10T18:41:41.397Z,95.30
2019-05-10T18:44:14.236Z,95.10
2019-05-10T18:46:39.747Z,95.40
2019-05-10T18:49:11.411Z,95.20
2019-05-10T18:51:43.831Z,94.90
2019-05-10T18:54:12.844Z,95.50
2019-05-10T18:56:57.623Z,95.90
2019-05-10T18:59:34.056Z,96.70
2019-05-10T19:02:11.902Z,95.80
2019-05-10T19:04:37.679Z,95.20
2019-05-10T19:07:10.432Z,94.80
2019-05-10T19:09:42.253Z,95.20
2019-05-10T19:12:18.956Z,95.40
2019-05-10T19:14:48.407Z,95.30
2019-05-10T19:17:19.684Z,95.40
2019-05-10T19:19:50.967Z,96.40
2019-05-10T19:22:22.567Z,96.90
2019-05-10T19:25:10.125Z,97.20
2019-05-10T19:27:44.745Z,98.10
2019-05-10T19:30:40.424Z,98.20
2019-05-10T19:33:11.543Z,97.60
2019-05-10T19:35:45.996Z,97.60
2019-05-10T19:38:23.110Z,97.60
2019-05-10T19:40:57.775Z,98.20
2019-05-10T19:43:29.394Z,97.80
2019-05-10T19:46:01.501Z,98.10
2019-05-10T19:48:35.643Z,97.30
2019-05-10T19:51:22.858Z,97.30
2019-05-10T19:53:51.736Z,97.90
2019-05-10T19:56:20.336Z,98.00
2019-05-10T19:58:54.680Z,98.30
2019-05-10T20:01:26.409Z,98.00
2019-05-10T20:03:57.827Z,97.90
2019-05-10T20:06:28.635Z,97.10
2019-05-10T20:08:58.410Z,97.50
2019-05-10T20:11:27.160Z,97.40
2019-05-10T20:13:58.537Z,98.00
2019-05-10T20:16:34.388Z,98.30
2019-05-10T20:19:24.490Z,98.20
2019-05-10T20:21:53.056Z,98.20
2019-05-10T20:24:33.714Z,98.40
2019-05-10T20:27:05.073Z,98.80
2019-05-10T20:29:36.685Z,98.40
2019-05-10T20:32:04.935Z,98.70
2019-05-10T20:34:48.472Z,99.40
2019-05-10T20:37:23.343Z,99.00
2019-05-10T20:39:57.911Z,99.50
2019-05-10T20:42:31.596Z,99.90
2019-05-10T20:45:07.322Z,99.90
2019-05-10T20:47:33.235Z,99.90
2019-05-10T20:50:14.754Z,99.80
2019-05-10T20:52:43.356Z,99.60
2019-05-10T20:55:13.380Z,99.20
2019-05-10T20:57:45.012Z,99.20
2019-05-10T21:00:31.908Z,99.10
2019-05-10T21:03:02.521Z,99.30
2019-05-10T21:05:37.149Z,99.20
2019-05-10T21:08:16.932Z,99.00
2019-05-10T21:10:40.331Z,98.60
2019-05-10T21:13:17.964Z,98.10
2019-05-10T21:15:49.368Z,98.10
2019-05-10T21:18:38.949Z,97.90
2019-05-10T21:21:09.528Z,97.50
2019-05-10T21:23:44.098Z,97.60
2019-05-10T21:26:15.761Z,98.40
2019-05-10T21:28:49.547Z,99.10
2019-05-10T21:32:16.275Z,99.30
2019-05-10T21:34:48.033Z,98.90
2019-05-10T21:37:16.627Z,99.70
2019-05-10T21:39:49.448Z,99.50
2019-05-10T21:42:21.099Z,99.70
2019-05-10T21:44:48.922Z,99.90
2019-05-10T21:47:20.589Z,99.90
2019-05-10T21:49:51.453Z,99.90
2019-05-10T21:52:20.136Z,99.90
2019-05-10T21:55:08.284Z,99.90
2019-05-10T21:57:48.925Z,99.90
2019-05-10T22:00:22.749Z,99.90
2019-05-10T22:02:51.311Z,99.90
2019-05-10T22:05:26.033Z,99.90
2019-05-10T22:08:02.637Z,99.90
2019-05-10T22:10:34.913Z,99.90
2019-05-10T22:13:12.705Z,99.90
2019-05-10T22:15:41.333Z,99.90
2019-05-10T22:18:15.848Z,99.90
2019-05-10T22:20:47.120Z,99.90
2019-05-10T22:23:15.716Z,99.90
2019-05-10T22:25:44.315Z,99.90
2019-05-10T22:28:23.863Z,99.90
2019-05-10T22:30:58.475Z,99.90
2019-05-10T22:33:30.065Z,99.90
2019-05-10T22:36:01.442Z,99.90
2019-05-10T22:38:33.153Z,99.90
2019-05-10T22:41:03.934Z,99.90
2019-05-10T22:43:47.291Z,99.90
2019-05-10T22:46:15.895Z,99.90
2019-05-10T22:48:47.539Z,99.90
2019-05-10T22:51:24.428Z,99.90
2019-05-10T22:53:59.602Z,99.90
2019-05-10T22:56:23.260Z,99.90
2019-05-10T22:58:51.881Z,99.90
2019-05-10T23:01:20.583Z,99.90
2019-05-10T23:03:55.071Z,99.90
2019-05-10T23:06:26.800Z,99.90
2019-05-10T23:09:04.954Z,99.90
2019-05-10T23:11:39.276Z,99.90
2019-05-10T23:14:10.521Z,99.90
2019-05-10T23:16:42.378Z,99.90
2019-05-10T23:19:16.833Z,99.90
2019-05-10T23:21:45.422Z,99.90
2019-05-10T23:24:21.533Z,99.90
2019-05-10T23:26:55.923Z,99.90
2019-05-10T23:29:24.515Z,99.90
2019-05-10T23:31:56.150Z,99.90
2019-05-10T23:34:27.066Z,99.90
2019-05-10T23:36:57.632Z,99.90
2019-05-10T23:39:40.350Z,99.90
2019-05-10T23:42:01.847Z,99.90
2019-05-10T23:44:36.360Z,99.90
2019-05-10T23:47:11.236Z,99.90
2019-05-10T23:49:45.975Z,99.90
2019-05-10T23:52:17.631Z,99.90
2019-05-10T23:54:51.131Z,99.90
2019-05-10T23:57:25.491Z,99.90
